Time,TemperatureF,DewpointF,PressureIn,WindDirection,WindDirectionDegrees,WindSpeedMPH,WindSpeedGustMPH,Humidity,HourlyPrecipIn,Conditions,Clouds,dailyrainin,SoftwareType,DateUTC
2013-03-16 00:01:00,71.0,40.0,29.83,South,180,2.0,3.0,32,0.00,,,0.00,,2013-03-16 07:01:00,
2013-03-16 00:11:00,71.0,40.0,29.83,South,180,2.0,3.0,32,0.00,,,0.00,,2013-03-16 07:11:00,
2013-03-16 00:21:00,73.0,41.0,29.84,South,180,2.0,3.0,31,0.00,,,0.00,,2013-03-16 07:21:00,
2013-03-16 00:31:00,73.0,42.0,29.83,South,180,0.0,1.0,33,0.00,,,0.00,,2013-03-16 07:31:00,
2013-03-16 00:41:00,73.0,42.0,29.83,South,180,0.0,1.0,33,0.00,,,0.00,,2013-03-16 07:41:00,
2013-03-16 00:52:00,71.0,41.0,29.83,South,180,0.0,1.0,34,0.00,,,0.00,,2013-03-16 07:52:00,
2013-03-16 01:01:00,70.0,41.0,29.83,South,180,0.0,0.0,35,0.00,,,0.00,,2013-03-16 08:01:00,
2013-03-16 01:11:00,70.0,41.0,29.83,South,180,0.0,0.0,35,0.00,,,0.00,,2013-03-16 08:11:00,
2013-03-16 01:22:00,69.0,42.0,29.83,South,180,0.0,0.0,37,0.00,,,0.00,,2013-03-16 08:22:00,
2013-03-16 01:31:00,68.0,41.0,29.82,South,180,0.0,1.0,38,0.00,,,0.00,,2013-03-16 08:31:00,
2013-03-16 01:41:00,68.0,41.0,29.82,South,180,0.0,1.0,38,0.00,,,0.00,,2013-03-16 08:41:00,
2013-03-16 01:52:00,67.0,42.0,29.82,South,180,0.0,0.0,40,0.00,,,0.00,,2013-03-16 08:52:00,
2013-03-16 02:01:00,67.0,43.0,29.82,South,180,1.0,2.0,42,0.00,,,0.00,,2013-03-16 09:01:00,
2013-03-16 02:11:00,67.0,43.0,29.82,South,180,1.0,2.0,42,0.00,,,0.00,,2013-03-16 09:11:00,
2013-03-16 02:21:00,66.0,43.0,29.81,South,180,0.0,0.0,43,0.00,,,0.00,,2013-03-16 09:21:00,
2013-03-16 02:32:00,66.0,43.0,29.81,South,180,0.0,0.0,44,0.00,,,0.00,,2013-03-16 09:32:00,
2013-03-16 02:42:00,66.0,43.0,29.81,South,180,0.0,0.0,44,0.00,,,0.00,,2013-03-16 09:42:00,
2013-03-16 02:52:00,65.0,43.0,29.80,South,180,1.0,2.0,45,0.00,,,0.00,,2013-03-16 09:52:00,
2013-03-16 03:03:00,66.0,43.0,29.80,South,180,0.0,0.0,44,0.00,,,0.00,,2013-03-16 10:03:00,
2013-03-16 03:11:00,66.0,43.0,29.80,South,180,0.0,0.0,44,0.00,,,0.00,,2013-03-16 10:11:00,
2013-03-16 03:22:00,66.0,43.0,29.80,South,180,0.0,0.0,44,0.00,,,0.00,,2013-03-16 10:22:00,
2013-03-16 03:32:00,64.0,43.0,29.80,South,180,0.0,0.0,46,0.00,,,0.00,,2013-03-16 10:32:00,
2013-03-16 03:41:00,64.0,43.0,29.80,South,180,0.0,0.0,46,0.00,,,0.00,,2013-03-16 10:41:00,
2013-03-16 03:52:00,63.0,44.0,29.79,South,180,0.0,0.0,49,0.00,,,0.00,,2013-03-16 10:52:00,
2013-03-16 04:02:00,63.0,44.0,29.78,South,180,0.0,0.0,49,0.00,,,0.00,,2013-03-16 11:02:00,
2013-03-16 04:11:00,63.0,44.0,29.78,South,180,0.0,0.0,49,0.00,,,0.00,,2013-03-16 11:11:00,
2013-03-16 04:21:00,62.0,43.0,29.78,South,180,0.0,0.0,49,0.00,,,0.00,,2013-03-16 11:21:00,
2013-03-16 04:31:00,62.0,43.0,29.78,South,180,0.0,0.0,50,0.00,,,0.00,,2013-03-16 11:31:00,
2013-03-16 04:42:00,62.0,43.0,29.78,South,180,0.0,0.0,50,0.00,,,0.00,,2013-03-16 11:42:00,
2013-03-16 04:52:00,62.0,44.0,29.78,South,180,0.0,0.0,51,0.00,,,0.00,,2013-03-16 11:52:00,
2013-03-16 05:01:00,62.0,44.0,29.79,South,180,0.0,0.0,51,0.00,,,0.00,,2013-03-16 12:01:00,
2013-03-16 05:11:00,62.0,44.0,29.79,South,180,0.0,0.0,51,0.00,,,0.00,,2013-03-16 12:11:00,
2013-03-16 05:21:00,61.0,43.0,29.78,South,180,0.0,0.0,51,0.00,,,0.00,,2013-03-16 12:21:00,
2013-03-16 05:31:00,60.0,42.0,29.78,South,180,0.0,0.0,52,0.00,,,0.00,,2013-03-16 12:31:00,
2013-03-16 05:42:00,60.0,42.0,29.78,South,180,0.0,0.0,52,0.00,,,0.00,,2013-03-16 12:42:00,
2013-03-16 05:52:00,60.0,43.0,29.78,South,180,0.0,0.0,53,0.00,,,0.00,,2013-03-16 12:52:00,
2013-03-16 06:02:00,59.0,42.0,29.78,South,180,0.0,0.0,54,0.00,,,0.00,,2013-03-16 13:02:00,
2013-03-16 06:11:00,59.0,42.0,29.78,South,180,0.0,0.0,54,0.00,,,0.00,,2013-03-16 13:11:00,
2013-03-16 06:21:00,59.0,42.0,29.78,South,180,0.0,0.0,54,0.00,,,0.00,,2013-03-16 13:21:00,
2013-03-16 06:31:00,59.0,43.0,29.78,South,180,0.0,0.0,55,0.00,,,0.00,,2013-03-16 13:31:00,
2013-03-16 06:41:00,59.0,43.0,29.78,South,180,0.0,0.0,55,0.00,,,0.00,,2013-03-16 13:41:00,
2013-03-16 06:52:00,59.0,43.0,29.78,South,180,0.0,0.0,55,0.00,,,0.00,,2013-03-16 13:52:00,
2013-03-16 07:01:00,58.0,43.0,29.78,South,180,0.0,0.0,57,0.00,,,0.00,,2013-03-16 14:01:00,
2013-03-16 07:11:00,58.0,43.0,29.78,South,180,0.0,0.0,57,0.00,,,0.00,,2013-03-16 14:11:00,
2013-03-16 07:22:00,57.0,42.0,29.78,South,180,0.0,0.0,57,0.00,,,0.00,,2013-03-16 14:22:00,
2013-03-16 07:31:00,60.0,42.0,29.79,South,180,0.0,0.0,52,0.00,,,0.00,,2013-03-16 14:31:00,
2013-03-16 07:41:00,60.0,42.0,29.79,South,180,0.0,0.0,52,0.00,,,0.00,,2013-03-16 14:41:00,
2013-03-16 07:52:00,60.0,41.0,29.80,South,180,0.0,0.0,50,0.00,,,0.00,,2013-03-16 14:52:00,
2013-03-16 08:02:00,62.0,40.0,29.80,South,180,1.0,2.0,45,0.00,,,0.00,,2013-03-16 15:02:00,
2013-03-16 08:11:00,62.0,40.0,29.80,South,180,1.0,2.0,45,0.00,,,0.00,,2013-03-16 15:11:00,
2013-03-16 08:22:00,64.0,43.0,29.80,South,180,0.0,0.0,46,0.00,,,0.00,,2013-03-16 15:22:00,
2013-03-16 08:32:00,66.0,43.0,29.80,South,180,1.0,2.0,44,0.00,,,0.00,,2013-03-16 15:32:00,
2013-03-16 08:42:00,66.0,43.0,29.80,South,180,1.0,2.0,44,0.00,,,0.00,,2013-03-16 15:42:00,
2013-03-16 08:53:00,67.0,43.0,29.81,South,180,1.0,2.0,41,0.00,,,0.00,,2013-03-16 15:53:00,
2013-03-16 09:02:00,68.0,41.0,29.81,South,180,1.0,2.0,38,0.00,,,0.00,,2013-03-16 16:02:00,
2013-03-16 09:12:00,68.0,41.0,29.81,South,180,1.0,2.0,38,0.00,,,0.00,,2013-03-16 16:12:00,
2013-03-16 09:22:00,69.0,41.0,29.81,South,180,1.0,2.0,36,0.00,,,0.00,,2013-03-16 16:22:00,
2013-03-16 09:32:00,71.0,42.0,29.81,South,180,2.0,3.0,35,0.00,,,0.00,,2013-03-16 16:32:00,
2013-03-16 09:42:00,71.0,42.0,29.81,South,180,2.0,3.0,35,0.00,,,0.00,,2013-03-16 16:42:00,
2013-03-16 09:53:00,72.0,41.0,29.81,South,180,1.0,3.0,33,0.00,,,0.00,,2013-03-16 16:53:00,
2013-03-16 10:02:00,74.0,41.0,29.82,South,180,3.0,3.0,31,0.00,,,0.00,,2013-03-16 17:02:00,
2013-03-16 10:12:00,74.0,41.0,29.82,South,180,3.0,3.0,31,0.00,,,0.00,,2013-03-16 17:12:00,
2013-03-16 10:22:00,74.0,41.0,29.82,South,180,2.0,3.0,31,0.00,,,0.00,,2013-03-16 17:22:00,
2013-03-16 10:32:00,76.0,45.0,29.82,South,180,3.0,3.0,33,0.00,,,0.00,,2013-03-16 17:32:00,
2013-03-16 10:41:00,76.0,45.0,29.82,South,180,3.0,3.0,33,0.00,,,0.00,,2013-03-16 17:41:00,
2013-03-16 10:52:00,77.0,44.0,29.82,South,180,1.0,2.0,31,0.00,,,0.00,,2013-03-16 17:52:00,
2013-03-16 11:01:00,79.0,45.0,29.82,South,180,1.0,2.0,30,0.00,,,0.00,,2013-03-16 18:01:00,
2013-03-16 11:12:00,79.0,45.0,29.82,South,180,1.0,2.0,30,0.00,,,0.00,,2013-03-16 18:12:00,
2013-03-16 11:22:00,80.0,43.0,29.82,South,180,1.0,2.0,27,0.00,,,0.00,,2013-03-16 18:22:00,
2013-03-16 11:32:00,81.0,42.0,29.81,SSW,203,3.0,7.0,25,0.00,,,0.00,,2013-03-16 18:32:00,
2013-03-16 11:42:00,81.0,42.0,29.81,SSW,203,3.0,7.0,25,0.00,,,0.00,,2013-03-16 18:42:00,
2013-03-16 11:52:00,81.0,41.0,29.80,SSW,203,1.0,2.0,24,0.00,,,0.00,,2013-03-16 18:52:00,
2013-03-16 12:01:00,84.0,40.0,29.80,SW,225,3.0,6.0,21,0.00,,,0.00,,2013-03-16 19:01:00,
2013-03-16 12:21:00,84.0,41.0,29.80,SW,225,6.0,8.0,22,0.00,,,0.00,,2013-03-16 19:21:00,
2013-03-16 12:31:00,85.0,41.0,29.78,SW,225,2.0,5.0,21,0.00,,,0.00,,2013-03-16 19:31:00,
2013-03-16 12:41:00,85.0,41.0,29.78,SW,225,2.0,5.0,21,0.00,,,0.00,,2013-03-16 19:41:00,
2013-03-16 12:52:00,85.0,43.0,29.78,WSW,248,5.0,7.0,23,0.00,,,0.00,,2013-03-16 19:52:00,
2013-03-16 13:02:00,86.0,44.0,29.77,SSW,203,5.0,7.0,23,0.00,,,0.00,,2013-03-16 20:02:00,
2013-03-16 13:21:00,88.0,43.0,29.77,SW,225,2.0,3.0,21,0.00,,,0.00,,2013-03-16 20:21:00,
2013-03-16 13:31:00,88.0,43.0,29.76,SW,225,0.0,1.0,21,0.00,,,0.00,,2013-03-16 20:31:00,
2013-03-16 13:52:00,89.0,41.0,29.75,SW,225,5.0,7.0,19,0.00,,,0.00,,2013-03-16 20:52:00,
2013-03-16 14:01:00,90.0,43.0,29.74,SW,225,2.0,5.0,20,0.00,,,0.00,,2013-03-16 21:01:00,
2013-03-16 14:22:00,90.0,42.0,29.75,WSW,248,5.0,6.0,19,0.00,,,0.00,,2013-03-16 21:22:00,
2013-03-16 14:32:00,91.0,43.0,29.73,WSW,248,2.0,3.0,19,0.00,,,0.00,,2013-03-16 21:32:00,
2013-03-16 14:52:00,91.0,43.0,29.73,WSW,248,1.0,3.0,19,0.00,,,0.00,,2013-03-16 21:52:00,
2013-03-16 15:02:00,90.0,42.0,29.72,SW,225,1.0,2.0,19,0.00,,,0.00,,2013-03-16 22:02:00,
2013-03-16 15:22:00,90.0,42.0,29.72,South,180,1.0,3.0,19,0.00,,,0.00,,2013-03-16 22:22:00,
2013-03-16 15:32:00,89.0,43.0,29.71,SSW,203,5.0,6.0,20,0.00,,,0.00,,2013-03-16 22:32:00,
2013-03-16 15:52:00,89.0,41.0,29.71,South,180,3.0,6.0,19,0.00,,,0.00,,2013-03-16 22:52:00,
2013-03-16 16:01:00,90.0,43.0,29.71,SSW,203,6.0,8.0,20,0.00,,,0.00,,2013-03-16 23:01:00,
2013-03-16 16:22:00,89.0,44.0,29.70,South,180,5.0,7.0,21,0.00,,,0.00,,2013-03-16 23:22:00,
2013-03-16 16:32:00,89.0,44.0,29.70,South,180,5.0,7.0,21,0.00,,,0.00,,2013-03-16 23:32:00,
2013-03-16 16:52:00,89.0,44.0,29.70,SSW,203,3.0,6.0,21,0.00,,,0.00,,2013-03-16 23:52:00,
2013-03-16 17:01:00,89.0,44.0,29.70,SSW,203,3.0,6.0,21,0.00,,,0.00,,2013-03-17 00:01:00,
2013-03-16 17:22:00,89.0,44.0,29.70,South,180,3.0,6.0,21,0.00,,,0.00,,2013-03-17 00:22:00,
2013-03-16 17:31:00,89.0,44.0,29.69,South,180,3.0,6.0,21,0.00,,,0.00,,2013-03-17 00:31:00,
2013-03-16 17:52:00,88.0,43.0,29.69,South,180,3.0,5.0,21,0.00,,,0.00,,2013-03-17 00:52:00,
2013-03-16 18:01:00,88.0,43.0,29.69,South,180,3.0,7.0,21,0.00,,,0.00,,2013-03-17 01:01:00,
2013-03-16 18:21:00,88.0,43.0,29.69,South,180,5.0,6.0,21,0.00,,,0.00,,2013-03-17 01:21:00,
2013-03-16 19:02:00,85.0,46.0,29.70,South,180,2.0,3.0,26,0.00,,,0.00,,2013-03-17 02:02:00,
2013-03-16 19:22:00,84.0,45.0,29.69,South,180,2.0,3.0,26,0.00,,,0.00,,2013-03-17 02:22:00,
2013-03-16 19:32:00,82.0,45.0,29.70,South,180,0.0,1.0,27,0.00,,,0.00,,2013-03-17 02:32:00,
2013-03-16 19:52:00,81.0,44.0,29.70,South,180,0.0,1.0,27,0.00,,,0.00,,2013-03-17 02:52:00,
2013-03-16 20:01:00,80.0,43.0,29.71,South,180,0.0,0.0,27,0.00,,,0.00,,2013-03-17 03:01:00,
2013-03-16 20:11:00,80.0,43.0,29.71,South,180,0.0,0.0,27,0.00,,,0.00,,2013-03-17 03:11:00,
2013-03-16 20:21:00,79.0,45.0,29.71,South,180,0.0,0.0,30,0.00,,,0.00,,2013-03-17 03:21:00,
2013-03-16 20:32:00,77.0,44.0,29.72,South,180,0.0,0.0,31,0.00,,,0.00,,2013-03-17 03:32:00,
2013-03-16 20:52:00,76.0,45.0,29.72,South,180,0.0,0.0,33,0.00,,,0.00,,2013-03-17 03:52:00,
2013-03-16 21:02:00,76.0,46.0,29.74,South,180,0.0,0.0,34,0.00,,,0.00,,2013-03-17 04:02:00,
2013-03-16 21:22:00,74.0,44.0,29.75,South,180,2.0,3.0,34,0.00,,,0.00,,2013-03-17 04:22:00,
2013-03-16 21:32:00,74.0,44.0,29.75,South,180,1.0,2.0,34,0.00,,,0.00,,2013-03-17 04:32:00,
2013-03-16 21:53:00,74.0,45.0,29.76,South,180,2.0,3.0,36,0.00,,,0.00,,2013-03-17 04:53:00,
2013-03-16 22:02:00,74.0,45.0,29.76,South,180,2.0,3.0,35,0.00,,,0.00,,2013-03-17 05:02:00,
2013-03-16 22:21:00,73.0,44.0,29.77,South,180,1.0,2.0,36,0.00,,,0.00,,2013-03-17 05:21:00,
2013-03-16 22:32:00,72.0,45.0,29.76,South,180,2.0,3.0,38,0.00,,,0.00,,2013-03-17 05:32:00,
2013-03-16 22:52:00,71.0,45.0,29.78,South,180,2.0,3.0,39,0.00,,,0.00,,2013-03-17 05:52:00,
2013-03-16 23:01:00,71.0,45.0,29.77,South,180,1.0,2.0,40,0.00,,,0.00,,2013-03-17 06:01:00,
2013-03-16 23:21:00,70.0,45.0,29.77,South,180,2.0,3.0,41,0.00,,,0.00,,2013-03-17 06:21:00,
2013-03-16 23:31:00,70.0,45.0,29.77,South,180,2.0,3.0,40,0.00,,,0.00,,2013-03-17 06:31:00,
2013-03-16 23:52:00,70.0,44.0,29.77,South,180,2.0,3.0,39,0.00,,,0.00,,2013-03-17 06:52:00,